createdAt,value
2023-04-07T00:00:24.736Z,2.45
2023-04-07T00:02:51.888Z,2.05
2023-04-07T00:05:19.050Z,2.10
2023-04-07T00:07:55.797Z,2.40
2023-04-07T00:10:24.696Z,1.67
2023-04-07T00:12:51.663Z,2.17
2023-04-07T00:15:18.481Z,3.65
2023-04-07T00:17:45.360Z,2.45
2023-04-07T00:20:12.585Z,1.92
2023-04-07T00:22:40.092Z,2.97
2023-04-07T00:25:07.569Z,2.80
2023-04-07T00:27:34.548Z,3.03
2023-04-07T00:30:01.464Z,3.17
2023-04-07T00:32:28.219Z,3.05
2023-04-07T00:34:55.042Z,2.97
2023-04-07T00:37:21.808Z,2.85
2023-04-07T00:39:48.807Z,3.10
2023-04-07T00:42:15.538Z,3.67
2023-04-07T00:44:42.422Z,3.25
2023-04-07T00:47:09.215Z,3.80
2023-04-07T00:49:37.309Z,4.32
2023-04-07T00:52:04.728Z,3.40
2023-04-07T00:54:31.457Z,3.70
2023-04-07T00:56:58.271Z,3.63
2023-04-07T00:59:25.267Z,3.60
2023-04-07T01:01:56.493Z,3.67
2023-04-07T01:04:51.938Z,3.80
2023-04-07T01:07:22.836Z,3.90
2023-04-07T01:10:00.811Z,4.20
2023-04-07T01:12:44.805Z,3.47
2023-04-07T01:15:12.363Z,5.32
2023-04-07T01:17:50.143Z,4.13
2023-04-07T01:20:19.273Z,4.60
2023-04-07T01:22:56.557Z,3.45
2023-04-07T01:25:38.641Z,3.65
2023-04-07T01:28:08.123Z,3.70
2023-04-07T01:30:39.804Z,3.30
2023-04-07T01:33:06.954Z,3.63
2023-04-07T01:35:35.009Z,3.28
2023-04-07T01:38:01.742Z,3.67
2023-04-07T01:40:28.860Z,3.45
2023-04-07T01:42:56.785Z,3.08
2023-04-07T01:45:23.548Z,4.05
2023-04-07T01:47:50.655Z,3.22
2023-04-07T01:50:17.596Z,3.47
2023-04-07T01:52:44.380Z,3.25
2023-04-07T01:55:11.408Z,2.90
2023-04-07T01:57:38.150Z,3.08
2023-04-07T02:00:06.252Z,3.25
2023-04-07T02:02:35.477Z,3.08
2023-04-07T02:05:05.574Z,3.05
2023-04-07T02:07:40.360Z,3.35
2023-04-07T02:10:08.536Z,3.15
2023-04-07T02:12:35.695Z,3.60
2023-04-07T02:15:02.551Z,3.42
2023-04-07T02:17:29.413Z,3.70
2023-04-07T02:19:56.639Z,4.40
2023-04-07T02:22:23.369Z,2.72
2023-04-07T02:24:50.377Z,3.20
2023-04-07T02:27:17.475Z,2.92
2023-04-07T02:29:44.234Z,2.50
2023-04-07T02:32:11.092Z,3.13
2023-04-07T02:34:37.938Z,3.20
2023-04-07T02:37:04.750Z,3.00
2023-04-07T02:39:31.639Z,2.63
2023-04-07T02:41:58.552Z,3.78
2023-04-07T02:44:25.369Z,2.70
2023-04-07T02:46:52.194Z,2.78
2023-04-07T02:49:18.908Z,2.90
2023-04-07T02:51:46.971Z,3.30
2023-04-07T02:54:13.826Z,3.13
2023-04-07T02:56:40.542Z,2.88
2023-04-07T02:59:07.790Z,2.78
2023-04-07T03:01:36.429Z,2.40
2023-04-07T03:04:03.371Z,2.78
2023-04-07T03:06:31.571Z,2.40
2023-04-07T03:08:58.382Z,3.00
2023-04-07T03:11:25.161Z,2.63
2023-04-07T03:13:52.127Z,3.08
2023-04-07T03:16:19.053Z,3.05
2023-04-07T03:18:45.864Z,2.75
2023-04-07T03:21:13.110Z,2.60
2023-04-07T03:23:40.052Z,3.08
2023-04-07T03:26:06.798Z,2.83
2023-04-07T03:28:33.516Z,3.00
2023-04-07T03:31:00.307Z,3.25
2023-04-07T03:33:27.038Z,2.85
2023-04-07T03:35:53.811Z,2.97
2023-04-07T03:38:21.563Z,2.85
2023-04-07T03:40:48.288Z,2.60
2023-04-07T03:43:15.825Z,3.13
2023-04-07T03:45:42.822Z,2.70
2023-04-07T03:48:12.255Z,2.58
2023-04-07T03:50:39.885Z,3.13
2023-04-07T03:53:06.968Z,2.20
2023-04-07T03:55:34.312Z,2.58
2023-04-07T03:58:01.298Z,2.60
2023-04-07T04:00:28.143Z,3.90
2023-04-07T04:02:55.011Z,3.20
2023-04-07T04:05:21.846Z,3.97
2023-04-07T04:07:48.657Z,2.80
2023-04-07T04:10:16.387Z,2.92
2023-04-07T04:12:43.111Z,2.42
2023-04-07T04:15:10.438Z,2.80
2023-04-07T04:17:37.210Z,3.15
2023-04-07T04:20:04.810Z,2.47
2023-04-07T04:22:31.775Z,2.75
2023-04-07T04:24:59.222Z,2.30
2023-04-07T04:27:25.960Z,2.90
2023-04-07T04:29:53.850Z,2.88
2023-04-07T04:32:21.334Z,2.42
2023-04-07T04:34:48.167Z,3.25
2023-04-07T04:37:15.109Z,3.30
2023-04-07T04:39:41.832Z,2.97
2023-04-07T04:42:08.570Z,2.83
2023-04-07T04:44:35.385Z,2.60
2023-04-07T04:47:02.232Z,2.40
2023-04-07T04:49:29.012Z,2.90
2023-04-07T04:51:55.898Z,2.45
2023-04-07T04:54:22.667Z,2.58
2023-04-07T04:56:49.438Z,2.40
2023-04-07T04:59:16.206Z,2.78
2023-04-07T05:01:43.014Z,2.55
2023-04-07T05:04:10.532Z,3.25
2023-04-07T05:06:37.722Z,3.00
2023-04-07T05:09:04.533Z,3.83
2023-04-07T05:11:31.314Z,3.53
2023-04-07T05:13:58.053Z,2.53
2023-04-07T05:16:24.939Z,2.60
2023-04-07T05:18:51.893Z,2.80
2023-04-07T05:21:20.372Z,2.40
2023-04-07T05:23:47.124Z,2.90
2023-04-07T05:26:13.872Z,3.33
2023-04-07T05:28:40.627Z,3.30
2023-04-07T05:31:08.046Z,3.05
2023-04-07T05:33:34.907Z,3.03
2023-04-07T05:36:01.714Z,2.95
2023-04-07T05:38:28.498Z,3.33
2023-04-07T05:40:55.265Z,3.25
2023-04-07T05:43:22.015Z,3.38
2023-04-07T05:45:48.807Z,4.47
2023-04-07T05:48:15.761Z,3.20
2023-04-07T05:50:42.953Z,3.58
2023-04-07T05:53:09.704Z,3.30
2023-04-07T05:55:36.531Z,5.25
2023-04-07T05:58:03.700Z,3.80
2023-04-07T06:00:30.656Z,3.83
2023-04-07T06:02:57.572Z,3.42
2023-04-07T06:05:24.494Z,3.10
2023-04-07T06:07:51.254Z,4.95
2023-04-07T06:10:17.953Z,3.65
2023-04-07T06:12:44.749Z,3.45
2023-04-07T06:15:11.679Z,4.38
2023-04-07T06:17:38.436Z,3.42
2023-04-07T06:20:06.151Z,3.30
2023-04-07T06:22:32.978Z,3.78
2023-04-07T06:24:59.711Z,4.72
2023-04-07T06:27:26.491Z,3.47
2023-04-07T06:29:53.263Z,3.80
2023-04-07T06:32:20.389Z,3.78
2023-04-07T06:34:47.284Z,5.30
2023-04-07T06:37:14.041Z,3.90
2023-04-07T06:39:40.838Z,3.95
2023-04-07T06:42:07.615Z,3.13
2023-04-07T06:44:34.382Z,3.08
2023-04-07T06:47:01.112Z,3.17
2023-04-07T06:49:27.878Z,3.47
2023-04-07T06:51:54.635Z,3.20
2023-04-07T06:54:21.574Z,3.10
2023-04-07T06:56:48.331Z,2.78
2023-04-07T06:59:15.068Z,3.20
2023-04-07T07:01:42.269Z,3.13
2023-04-07T07:04:09.292Z,4.55
2023-04-07T07:06:36.453Z,3.10
2023-04-07T07:09:03.286Z,3.22
2023-04-07T07:11:30.041Z,2.90
2023-04-07T07:13:56.804Z,3.25
2023-04-07T07:16:26.595Z,3.42
2023-04-07T07:18:53.656Z,3.47
2023-04-07T07:21:20.926Z,3.30
2023-04-07T07:23:47.814Z,4.35
2023-04-07T07:26:14.760Z,3.67
2023-04-07T07:28:41.566Z,3.40
2023-04-07T07:31:15.947Z,3.67
2023-04-07T07:33:44.172Z,5.28
2023-04-07T07:36:11.308Z,3.92
2023-04-07T07:38:38.610Z,3.47
2023-04-07T07:41:06.911Z,3.75
2023-04-07T07:43:33.947Z,3.45
2023-04-07T07:46:01.040Z,3.67
2023-04-07T07:48:27.895Z,4.60
2023-04-07T07:50:56.949Z,3.28
2023-04-07T07:53:23.820Z,3.55
2023-04-07T07:55:50.603Z,3.13
2023-04-07T07:58:17.409Z,3.45
2023-04-07T08:00:44.509Z,3.08
2023-04-07T08:03:11.439Z,3.53
2023-04-07T08:05:38.311Z,3.63
2023-04-07T08:08:05.114Z,3.83
2023-04-07T08:10:31.870Z,4.15
2023-04-07T08:12:58.746Z,3.33
2023-04-07T08:15:25.570Z,4.07
2023-04-07T08:17:54.640Z,3.90
2023-04-07T08:20:23.167Z,3.70
2023-04-07T08:22:49.898Z,3.40
2023-04-07T08:25:16.628Z,3.97
2023-04-07T08:27:43.552Z,3.25
2023-04-07T08:30:10.420Z,3.10
2023-04-07T08:32:41.456Z,3.33
2023-04-07T08:35:08.498Z,3.20
2023-04-07T08:37:35.236Z,3.90
2023-04-07T08:40:02.998Z,3.17
2023-04-07T08:42:31.310Z,3.58
2023-04-07T08:45:00.197Z,3.55
2023-04-07T08:47:27.824Z,3.15
2023-04-07T08:49:57.243Z,4.68
2023-04-07T08:54:50.717Z,3.13
2023-04-07T08:57:18.082Z,3.97
2023-04-07T08:59:49.021Z,3.47
2023-04-07T09:02:15.804Z,3.25
2023-04-07T09:04:44.189Z,3.33
2023-04-07T09:07:11.031Z,4.22
2023-04-07T09:09:37.850Z,3.35
2023-04-07T09:12:04.641Z,3.53
2023-04-07T09:14:31.614Z,3.70
2023-04-07T09:17:00.327Z,2.83
2023-04-07T09:19:27.481Z,3.20
2023-04-07T09:21:54.378Z,3.13
2023-04-07T09:24:22.066Z,2.50
2023-04-07T09:26:48.924Z,2.90
2023-04-07T09:29:19.328Z,2.88
2023-04-07T09:31:47.546Z,3.97
2023-04-07T09:34:25.380Z,3.50
2023-04-07T09:36:52.099Z,3.33
2023-04-07T09:39:19.708Z,3.08
2023-04-07T09:41:46.741Z,3.78
2023-04-07T09:44:13.550Z,3.75
2023-04-07T09:46:57.032Z,2.97
2023-04-07T09:49:26.566Z,2.83
2023-04-07T09:51:57.467Z,2.92
2023-04-07T09:54:42.582Z,2.65
2023-04-07T09:57:11.448Z,2.88
2023-04-07T09:59:41.034Z,3.35
2023-04-07T10:02:08.211Z,3.20
2023-04-07T10:04:35.063Z,3.80
2023-04-07T10:07:03.691Z,3.03
2023-04-07T10:09:30.606Z,3.00
2023-04-07T10:11:58.225Z,3.25
2023-04-07T10:14:30.475Z,2.92
2023-04-07T10:16:57.725Z,2.67
2023-04-07T10:19:24.992Z,2.50
2023-04-07T10:21:52.821Z,2.35
2023-04-07T10:24:43.217Z,2.38
2023-04-07T10:27:14.837Z,2.55
2023-04-07T10:29:42.704Z,2.10
2023-04-07T10:32:09.517Z,1.67
2023-04-07T10:34:58.049Z,1.40
2023-04-07T10:37:25.629Z,1.50
2023-04-07T10:40:13.057Z,2.00
2023-04-07T10:42:39.787Z,1.67
2023-04-07T10:45:09.789Z,1.17
2023-04-07T10:47:58.992Z,1.77
2023-04-07T10:53:12.316Z,1.42
2023-04-07T10:55:39.622Z,1.10
2023-04-07T10:58:15.428Z,1.10
2023-04-07T11:00:42.934Z,1.50
2023-04-07T11:03:13.582Z,1.42
2023-04-07T11:05:41.120Z,0.95
2023-04-07T11:08:08.088Z,1.50
2023-04-07T11:10:35.652Z,1.65
2023-04-07T11:13:08.704Z,1.33
2023-04-07T11:15:38.561Z,1.40
2023-04-07T11:18:17.660Z,1.30
2023-04-07T11:20:49.020Z,1.00
2023-04-07T11:23:16.578Z,1.30
2023-04-07T11:25:44.382Z,1.77
2023-04-07T11:28:12.533Z,2.25
2023-04-07T11:30:39.532Z,3.53
2023-04-07T11:33:06.430Z,1.48
2023-04-07T11:35:33.234Z,1.67
2023-04-07T11:38:00.896Z,1.38
2023-04-07T11:40:34.965Z,1.55
2023-04-07T11:43:04.604Z,2.17
2023-04-07T11:45:31.393Z,1.70
2023-04-07T11:47:58.156Z,1.60
2023-04-07T11:50:41.173Z,1.52
2023-04-07T11:53:08.813Z,1.33
2023-04-07T11:55:35.600Z,1.35
2023-04-07T11:58:12.467Z,1.23
2023-04-07T12:00:55.872Z,1.10
2023-04-07T12:03:22.901Z,2.20
2023-04-07T12:05:49.869Z,1.50
2023-04-07T12:08:16.762Z,1.75
2023-04-07T12:10:43.509Z,1.05
2023-04-07T12:13:10.226Z,1.05
2023-04-07T12:15:37.743Z,1.50
2023-04-07T12:18:07.556Z,1.20
2023-04-07T12:20:36.019Z,1.40
2023-04-07T12:23:04.182Z,1.08
2023-04-07T12:25:30.891Z,1.20
2023-04-07T12:27:57.656Z,1.15
2023-04-07T12:30:24.467Z,2.20
2023-04-07T12:32:51.345Z,1.30
2023-04-07T12:35:18.208Z,1.35
2023-04-07T12:37:45.008Z,1.00
2023-04-07T12:40:12.140Z,1.48
2023-04-07T12:42:39.205Z,1.60
2023-04-07T12:45:06.576Z,1.75
2023-04-07T12:47:34.093Z,1.95
2023-04-07T12:50:01.833Z,1.48
2023-04-07T12:52:28.789Z,1.27
2023-04-07T12:54:55.528Z,1.85
2023-04-07T12:57:22.665Z,1.20
2023-04-07T12:59:49.680Z,1.55
2023-04-07T13:02:18.313Z,0.95
2023-04-07T13:04:46.923Z,1.20
2023-04-07T13:07:13.930Z,1.03
2023-04-07T13:09:43.886Z,1.55
2023-04-07T13:12:11.885Z,1.60
2023-04-07T13:14:49.315Z,1.20
2023-04-07T13:17:24.191Z,1.13
2023-04-07T13:19:51.335Z,1.83
2023-04-07T13:22:21.241Z,1.42
2023-04-07T13:24:48.772Z,0.95
2023-04-07T13:27:15.692Z,1.20
2023-04-07T13:29:42.400Z,1.30
2023-04-07T13:32:09.755Z,1.92
2023-04-07T13:34:36.780Z,1.38
2023-04-07T13:37:04.049Z,1.50
2023-04-07T13:39:31.305Z,1.60
2023-04-07T13:41:58.794Z,1.20
2023-04-07T13:44:28.969Z,1.17
2023-04-07T13:46:58.196Z,1.52
2023-04-07T13:51:51.983Z,1.05
2023-04-07T13:54:19.022Z,1.15
2023-04-07T13:56:45.805Z,1.10
2023-04-07T13:59:12.741Z,0.98
2023-04-07T14:01:39.817Z,0.88
2023-04-07T14:04:07.061Z,1.10
2023-04-07T14:06:33.876Z,1.30
2023-04-07T14:09:00.837Z,1.17
2023-04-07T14:11:27.813Z,1.33
2023-04-07T14:13:56.457Z,1.13
2023-04-07T14:16:23.723Z,1.50
2023-04-07T14:18:51.571Z,1.23
2023-04-07T14:21:18.362Z,1.20
2023-04-07T14:23:45.338Z,1.20
2023-04-07T14:26:12.539Z,1.42
2023-04-07T14:28:39.385Z,1.30
2023-04-07T14:31:06.629Z,1.20
2023-04-07T14:33:33.431Z,1.40
2023-04-07T14:36:01.473Z,1.65
2023-04-07T14:38:28.283Z,1.30
2023-04-07T14:40:55.040Z,1.55
2023-04-07T14:43:21.723Z,1.60
2023-04-07T14:45:48.749Z,1.38
2023-04-07T14:48:16.933Z,1.40
2023-04-07T14:50:44.084Z,1.10
2023-04-07T14:53:10.812Z,1.50
2023-04-07T14:55:37.664Z,1.33
2023-04-07T14:58:04.704Z,1.65
2023-04-07T15:00:31.498Z,1.55
2023-04-07T15:02:58.496Z,1.42
2023-04-07T15:05:27.940Z,1.42
2023-04-07T15:07:54.752Z,1.15
2023-04-07T15:10:21.507Z,1.02
2023-04-07T15:12:48.871Z,0.98
2023-04-07T15:15:15.851Z,1.05
2023-04-07T15:17:44.915Z,1.58
2023-04-07T15:20:13.112Z,1.33
2023-04-07T15:22:40.252Z,1.02
2023-04-07T15:25:07.881Z,1.45
2023-04-07T15:27:34.711Z,1.70
2023-04-07T15:30:01.518Z,1.80
2023-04-07T15:32:30.763Z,1.67
2023-04-07T15:34:57.616Z,1.35
2023-04-07T15:37:25.335Z,1.52
2023-04-07T15:39:52.290Z,1.48
2023-04-07T15:42:19.116Z,1.58
2023-04-07T15:44:45.972Z,1.40
2023-04-07T15:47:12.710Z,2.17
2023-04-07T15:49:39.479Z,1.50
2023-04-07T15:52:06.422Z,1.30
2023-04-07T15:54:33.249Z,1.60
2023-04-07T15:57:00.137Z,1.55
2023-04-07T15:59:29.394Z,1.30
2023-04-07T16:01:56.465Z,1.33
2023-04-07T16:04:23.446Z,1.20
2023-04-07T16:06:50.464Z,1.38
2023-04-07T16:09:17.158Z,1.30
2023-04-07T16:11:43.866Z,1.45
2023-04-07T16:14:10.667Z,1.23
2023-04-07T16:16:40.854Z,1.08
2023-04-07T16:19:08.037Z,1.20
2023-04-07T16:21:35.018Z,1.30
2023-04-07T16:24:02.052Z,1.30
2023-04-07T16:26:28.802Z,1.20
2023-04-07T16:28:55.629Z,1.10
2023-04-07T16:31:22.606Z,1.40
2023-04-07T16:33:51.061Z,1.40
2023-04-07T16:36:18.002Z,1.30
2023-04-07T16:38:45.069Z,1.25
2023-04-07T16:41:11.771Z,1.85
2023-04-07T16:43:38.878Z,1.48
2023-04-07T16:46:06.313Z,1.17
2023-04-07T16:48:33.192Z,0.93
2023-04-07T16:50:59.921Z,1.27
2023-04-07T16:53:26.789Z,1.23
2023-04-07T16:55:53.597Z,1.25
2023-04-07T16:58:20.531Z,1.13
2023-04-07T17:00:47.312Z,1.27
2023-04-07T17:03:15.451Z,1.63
2023-04-07T17:05:44.494Z,1.00
2023-04-07T17:08:11.691Z,1.10
2023-04-07T17:10:38.495Z,1.25
2023-04-07T17:13:05.516Z,1.10
2023-04-07T17:15:36.514Z,0.93
2023-04-07T17:18:03.450Z,1.17
2023-04-07T17:20:30.208Z,1.67
2023-04-07T17:22:56.924Z,1.33
2023-04-07T17:25:23.777Z,1.30
2023-04-07T17:27:50.512Z,1.50
2023-04-07T17:30:18.201Z,1.20
2023-04-07T17:32:45.020Z,1.20
2023-04-07T17:35:11.832Z,0.75
2023-04-07T17:37:38.535Z,2.08
2023-04-07T17:40:06.118Z,1.45
2023-04-07T17:42:33.039Z,1.40
2023-04-07T17:44:59.744Z,1.40
2023-04-07T17:47:26.709Z,1.40
2023-04-07T17:49:53.476Z,1.30
2023-04-07T17:52:20.344Z,1.25
2023-04-07T17:54:47.088Z,1.33
2023-04-07T17:57:14.564Z,1.85
2023-04-07T17:59:41.540Z,1.45
2023-04-07T18:02:11.802Z,1.98
2023-04-07T18:04:38.639Z,1.52
2023-04-07T18:07:05.710Z,1.23
2023-04-07T18:09:32.956Z,1.27
2023-04-07T18:12:01.542Z,1.38
2023-04-07T18:14:28.550Z,1.80
2023-04-07T18:16:55.880Z,1.35
2023-04-07T18:19:25.600Z,1.23
2023-04-07T18:21:53.450Z,1.40
2023-04-07T18:24:20.941Z,1.25
2023-04-07T18:26:47.830Z,1.55
2023-04-07T18:29:14.974Z,1.25
2023-04-07T18:31:45.172Z,1.45
2023-04-07T18:34:12.088Z,1.20
2023-04-07T18:36:41.316Z,0.98
2023-04-07T18:39:08.124Z,1.25
2023-04-07T18:41:35.049Z,1.15
2023-04-07T18:44:01.791Z,1.50
2023-04-07T18:46:28.924Z,1.25
2023-04-07T18:48:55.803Z,1.35
2023-04-07T18:51:22.742Z,2.08
2023-04-07T18:53:49.734Z,1.80
2023-04-07T18:56:16.827Z,2.40
2023-04-07T18:58:44.033Z,1.90
2023-04-07T19:01:13.020Z,2.95
2023-04-07T19:03:40.699Z,2.22
2023-04-07T19:06:08.012Z,2.28
2023-04-07T19:08:36.089Z,3.35
2023-04-07T19:11:02.797Z,2.40
2023-04-07T19:13:29.536Z,2.35
2023-04-07T19:15:56.339Z,1.98
2023-04-07T19:18:23.270Z,2.03
2023-04-07T19:20:50.027Z,2.38
2023-04-07T19:23:17.265Z,2.53
2023-04-07T19:25:45.781Z,2.60
2023-04-07T19:28:13.145Z,2.33
2023-04-07T19:30:39.939Z,1.98
2023-04-07T19:33:06.894Z,2.13
2023-04-07T19:35:33.893Z,2.55
2023-04-07T19:38:00.656Z,1.80
2023-04-07T19:40:27.534Z,1.92
2023-04-07T19:42:56.242Z,2.85
2023-04-07T19:45:23.100Z,2.10
2023-04-07T19:47:49.931Z,1.90
2023-04-07T19:50:17.483Z,2.60
2023-04-07T19:52:45.415Z,2.17
2023-04-07T19:55:12.777Z,2.60
2023-04-07T19:57:40.489Z,3.03
2023-04-07T20:00:09.098Z,3.60
2023-04-07T20:02:36.772Z,3.97
2023-04-07T20:05:03.897Z,2.50
2023-04-07T20:07:31.427Z,3.45
2023-04-07T20:09:58.478Z,3.78
2023-04-07T20:12:25.356Z,3.13
2023-04-07T20:14:52.142Z,3.30
2023-04-07T20:17:19.324Z,3.88
2023-04-07T20:19:47.040Z,4.05
2023-04-07T20:22:13.794Z,3.65
2023-04-07T20:24:40.585Z,10.63
2023-04-07T20:27:07.361Z,5.85
2023-04-07T20:29:34.137Z,4.07
2023-04-07T20:32:01.149Z,4.72
2023-04-07T20:34:27.969Z,4.45
2023-04-07T20:36:54.800Z,4.38
2023-04-07T20:39:21.555Z,4.20
2023-04-07T20:41:48.324Z,4.18
2023-04-07T20:44:15.095Z,3.92
2023-04-07T20:46:43.448Z,4.03
2023-04-07T20:49:10.854Z,4.10
2023-04-07T20:51:37.722Z,3.80
2023-04-07T20:54:04.702Z,4.90
2023-04-07T20:56:31.966Z,4.07
2023-04-07T20:58:58.847Z,4.75
2023-04-07T21:01:25.703Z,4.90
2023-04-07T21:03:53.920Z,4.90
2023-04-07T21:06:21.200Z,5.15
2023-04-07T21:08:48.281Z,5.80
2023-04-07T21:11:15.446Z,5.93
2023-04-07T21:13:42.208Z,5.70
2023-04-07T21:16:09.167Z,5.90
2023-04-07T21:18:36.071Z,6.82
2023-04-07T21:21:03.036Z,6.00
2023-04-07T21:23:31.921Z,5.90
2023-04-07T21:26:10.325Z,6.03
2023-04-07T21:28:37.085Z,5.97
2023-04-07T21:31:04.417Z,6.55
2023-04-07T21:33:32.166Z,5.60
2023-04-07T21:36:02.620Z,6.07
2023-04-07T21:38:29.545Z,5.88
2023-04-07T21:40:57.603Z,5.30
2023-04-07T21:43:24.607Z,5.90
2023-04-07T21:45:51.334Z,5.47
2023-04-07T21:48:20.817Z,6.10
2023-04-07T21:50:47.648Z,6.20
2023-04-07T21:53:14.451Z,6.20
2023-04-07T21:55:41.395Z,5.13
2023-04-07T21:58:08.175Z,5.65
2023-04-07T22:00:34.855Z,6.25
2023-04-07T22:03:01.897Z,5.57
2023-04-07T22:05:28.822Z,5.35
2023-04-07T22:07:55.860Z,6.00
2023-04-07T22:10:22.603Z,5.25
2023-04-07T22:12:49.317Z,5.63
2023-04-07T22:15:16.285Z,5.65
2023-04-07T22:17:43.101Z,6.13
2023-04-07T22:20:10.525Z,6.05
2023-04-07T22:22:38.020Z,5.10
2023-04-07T22:25:05.959Z,5.97
2023-04-07T22:27:32.708Z,5.47
2023-04-07T22:29:59.369Z,5.85
2023-04-07T22:32:26.755Z,5.65
2023-04-07T22:34:53.468Z,6.40
2023-04-07T22:37:20.244Z,5.78
2023-04-07T22:39:47.015Z,7.55
2023-04-07T22:42:13.738Z,5.30
2023-04-07T22:44:40.982Z,5.72
2023-04-07T22:47:07.746Z,7.05
2023-04-07T22:49:34.496Z,5.97
2023-04-07T22:52:02.519Z,5.35
2023-04-07T22:54:29.253Z,6.00
2023-04-07T22:56:56.748Z,5.60
2023-04-07T22:59:23.489Z,6.15
2023-04-07T23:01:50.601Z,5.55
2023-04-07T23:04:17.396Z,7.68
2023-04-07T23:06:44.143Z,6.80
2023-04-07T23:09:11.577Z,6.13
2023-04-07T23:11:38.296Z,7.00
2023-04-07T23:14:06.172Z,7.15
2023-04-07T23:16:33.628Z,8.25
2023-04-07T23:19:01.179Z,7.97
2023-04-07T23:21:29.633Z,8.43
2023-04-07T23:23:58.073Z,8.48
2023-04-07T23:26:24.837Z,8.23
2023-04-07T23:28:51.792Z,7.78
2023-04-07T23:31:18.801Z,8.52
2023-04-07T23:33:46.676Z,9.15
2023-04-07T23:36:13.347Z,9.65
2023-04-07T23:38:40.841Z,9.50
2023-04-07T23:41:08.542Z,10.25
2023-04-07T23:43:35.676Z,10.73
2023-04-07T23:46:02.778Z,9.43
2023-04-07T23:48:30.908Z,10.57
2023-04-07T23:50:59.704Z,11.77
2023-04-07T23:53:26.379Z,12.30
2023-04-07T23:55:53.064Z,11.60
2023-04-07T23:58:19.743Z,11.23
